createdAt,value
2023-04-09T00:00:16.773Z,6.83
2023-04-09T00:01:16.318Z,6.82
2023-04-09T00:02:17.033Z,6.82
2023-04-09T00:03:16.610Z,6.84
2023-04-09T00:04:17.320Z,6.84
2023-04-09T00:05:16.926Z,6.84
2023-04-09T00:06:16.490Z,6.87
2023-04-09T00:07:17.037Z,6.86
2023-04-09T00:08:16.620Z,6.83
2023-04-09T00:09:17.159Z,6.86
2023-04-09T00:10:16.708Z,6.83
2023-04-09T00:11:17.258Z,6.84
2023-04-09T00:12:16.705Z,6.84
2023-04-09T00:13:20.440Z,6.88
2023-04-09T00:14:16.756Z,6.87
2023-04-09T00:15:24.310Z,6.87
2023-04-09T00:16:17.356Z,6.84
2023-04-09T00:17:16.980Z,6.87
2023-04-09T00:18:16.532Z,6.84
2023-04-09T00:19:17.139Z,6.84
2023-04-09T00:20:16.684Z,6.83
2023-04-09T00:21:17.264Z,6.83
2023-04-09T00:22:17.132Z,6.84
2023-04-09T00:23:16.657Z,6.83
2023-04-09T00:24:17.215Z,6.86
2023-04-09T00:25:16.820Z,6.86
2023-04-09T00:26:16.410Z,6.86
2023-04-09T00:27:16.996Z,6.88
2023-04-09T00:28:16.544Z,6.90
2023-04-09T00:29:17.113Z,6.88
2023-04-09T00:30:16.688Z,6.87
2023-04-09T00:31:18.372Z,6.87
2023-04-09T00:32:16.834Z,6.86
2023-04-09T00:33:16.385Z,6.86
2023-04-09T00:34:16.960Z,6.86
2023-04-09T00:35:16.511Z,6.87
2023-04-09T00:36:17.071Z,6.88
2023-04-09T00:37:16.732Z,6.90
2023-04-09T00:38:17.290Z,6.87
2023-04-09T00:39:16.851Z,6.88
2023-04-09T00:40:16.373Z,6.90
2023-04-09T00:41:16.938Z,6.88
2023-04-09T00:42:16.997Z,6.90
2023-04-09T00:43:16.636Z,6.88
2023-04-09T00:44:17.189Z,6.90
2023-04-09T00:45:16.786Z,6.90
2023-04-09T00:46:16.377Z,6.90
2023-04-09T00:47:16.984Z,6.90
2023-04-09T00:48:16.548Z,6.88
2023-04-09T00:49:17.099Z,6.90
2023-04-09T00:50:16.628Z,6.91
2023-04-09T00:51:17.221Z,6.87
2023-04-09T00:52:17.205Z,6.88
2023-04-09T00:53:16.764Z,6.90
2023-04-09T00:54:17.306Z,6.86
2023-04-09T00:55:16.829Z,6.86
2023-04-09T00:56:16.402Z,6.84
2023-04-09T00:57:16.997Z,6.82
2023-04-09T00:58:16.588Z,6.80
2023-04-09T00:59:17.132Z,6.77
2023-04-09T01:00:16.698Z,6.77
2023-04-09T01:01:17.290Z,6.77
2023-04-09T01:02:16.756Z,6.76
2023-04-09T01:03:16.534Z,6.79
2023-04-09T01:04:17.231Z,6.80
2023-04-09T01:05:16.767Z,6.79
2023-04-09T01:06:17.294Z,6.77
2023-04-09T01:07:16.860Z,6.79
2023-04-09T01:08:16.436Z,6.77
2023-04-09T01:09:17.016Z,6.73
2023-04-09T01:10:16.574Z,6.73
2023-04-09T01:11:17.138Z,6.72
2023-04-09T01:12:17.235Z,6.69
2023-04-09T01:13:16.802Z,6.70
2023-04-09T01:14:16.369Z,6.69
2023-04-09T01:15:16.896Z,6.65
2023-04-09T01:16:16.456Z,6.69
2023-04-09T01:17:17.049Z,6.67
2023-04-09T01:18:16.984Z,6.66
2023-04-09T01:19:16.540Z,6.66
2023-04-09T01:20:17.101Z,6.65
2023-04-09T01:21:16.632Z,6.61
2023-04-09T01:22:16.895Z,6.67
2023-04-09T01:23:16.446Z,6.66
2023-04-09T01:24:16.985Z,6.63
2023-04-09T01:25:16.555Z,6.65
2023-04-09T01:26:17.117Z,6.63
2023-04-09T01:27:16.669Z,6.63
2023-04-09T01:28:17.228Z,6.63
2023-04-09T01:29:16.864Z,6.63
2023-04-09T01:30:16.419Z,6.61
2023-04-09T01:31:16.945Z,6.61
2023-04-09T01:32:16.732Z,6.65
2023-04-09T01:33:17.259Z,6.65
2023-04-09T01:34:16.802Z,6.65
2023-04-09T01:35:16.373Z,6.61
2023-04-09T01:36:16.939Z,6.63
2023-04-09T01:37:16.495Z,6.60
2023-04-09T01:38:17.060Z,6.59
2023-04-09T01:39:16.660Z,6.57
2023-04-09T01:40:17.215Z,6.55
2023-04-09T01:41:16.801Z,6.50
2023-04-09T01:42:16.798Z,6.53
2023-04-09T01:43:16.330Z,6.49
2023-04-09T01:44:16.880Z,6.49
2023-04-09T01:45:16.392Z,6.52
2023-04-09T01:46:16.961Z,6.50
2023-04-09T01:47:16.575Z,6.49
2023-04-09T01:48:17.107Z,6.48
2023-04-09T01:49:16.639Z,6.46
2023-04-09T01:50:17.208Z,6.49
2023-04-09T01:51:16.773Z,6.50
2023-04-09T01:52:16.452Z,6.50
2023-04-09T01:53:17.001Z,6.50
2023-04-09T01:54:16.550Z,6.49
2023-04-09T01:55:17.141Z,6.46
2023-04-09T01:56:16.743Z,6.49
2023-04-09T01:57:16.317Z,6.49
2023-04-09T01:58:16.844Z,6.50
2023-04-09T01:59:16.450Z,6.50
2023-04-09T02:00:17.052Z,6.50
2023-04-09T02:01:16.650Z,6.53
2023-04-09T02:02:17.103Z,6.50
2023-04-09T02:03:16.771Z,6.52
2023-04-09T02:04:16.589Z,6.52
2023-04-09T02:05:17.189Z,6.53
2023-04-09T02:06:16.713Z,6.56
2023-04-09T02:07:17.290Z,6.53
2023-04-09T02:08:16.858Z,6.50
2023-04-09T02:09:16.431Z,6.50
2023-04-09T02:10:16.997Z,6.49
2023-04-09T02:11:16.580Z,6.50
2023-04-09T02:12:16.932Z,6.49
2023-04-09T02:13:16.453Z,6.45
2023-04-09T02:14:16.987Z,6.42
2023-04-09T02:15:16.532Z,6.42
2023-04-09T02:16:17.221Z,6.40
2023-04-09T02:17:16.973Z,6.42
2023-04-09T02:19:16.593Z,6.39
2023-04-09T02:20:17.136Z,6.36
2023-04-09T02:21:16.709Z,6.33
2023-04-09T02:22:16.991Z,6.32
2023-04-09T02:23:16.557Z,6.33
2023-04-09T02:24:17.119Z,6.29
2023-04-09T02:25:16.668Z,6.28
2023-04-09T02:26:17.202Z,6.25
2023-04-09T02:27:16.755Z,6.25
2023-04-09T02:28:17.318Z,6.26
2023-04-09T02:29:16.872Z,6.25
2023-04-09T02:30:16.424Z,6.26
2023-04-09T02:31:16.972Z,6.25
2023-04-09T02:32:17.130Z,6.24
2023-04-09T02:33:16.852Z,6.25
2023-04-09T02:34:16.414Z,6.24
2023-04-09T02:35:16.993Z,6.21
2023-04-09T02:36:16.588Z,6.20
2023-04-09T02:37:17.170Z,6.18
2023-04-09T02:38:16.735Z,6.15
2023-04-09T02:39:17.321Z,6.15
2023-04-09T02:40:16.878Z,6.17
2023-04-09T02:41:16.425Z,6.15
2023-04-09T02:42:17.146Z,6.14
2023-04-09T02:43:16.694Z,6.14
2023-04-09T02:44:17.238Z,6.14
2023-04-09T02:45:16.792Z,6.14
2023-04-09T02:46:16.406Z,6.15
2023-04-09T02:47:17.087Z,6.12
2023-04-09T02:48:16.640Z,6.11
2023-04-09T02:49:17.211Z,6.14
2023-04-09T02:50:16.812Z,6.14
2023-04-09T02:51:16.384Z,6.11
2023-04-09T02:52:17.294Z,6.14
2023-04-09T02:53:16.848Z,6.07
2023-04-09T02:54:16.390Z,6.08
2023-04-09T02:55:16.931Z,6.08
2023-04-09T02:56:16.456Z,6.05
2023-04-09T02:57:17.010Z,6.03
2023-04-09T02:58:16.539Z,5.98
2023-04-09T02:59:17.094Z,5.94
2023-04-09T03:00:16.650Z,5.90
2023-04-09T03:01:17.212Z,5.86
2023-04-09T03:02:17.289Z,5.87
2023-04-09T03:03:17.044Z,5.82
2023-04-09T03:04:17.019Z,5.77
2023-04-09T03:05:16.666Z,5.75
2023-04-09T03:06:17.221Z,5.75
2023-04-09T03:07:16.778Z,5.69
2023-04-09T03:08:16.326Z,5.66
2023-04-09T03:09:16.868Z,5.65
2023-04-09T03:10:16.416Z,5.61
2023-04-09T03:11:16.935Z,5.57
2023-04-09T03:12:16.990Z,5.53
2023-04-09T03:13:16.584Z,5.51
2023-04-09T03:14:17.129Z,5.48
2023-04-09T03:15:16.673Z,5.46
2023-04-09T03:16:17.400Z,5.42
2023-04-09T03:17:17.045Z,5.35
2023-04-09T03:18:16.601Z,5.31
2023-04-09T03:19:17.154Z,5.24
2023-04-09T03:20:16.698Z,5.23
2023-04-09T03:21:17.256Z,5.21
2023-04-09T03:22:17.006Z,5.17
2023-04-09T03:23:16.548Z,5.17
2023-04-09T03:24:17.133Z,5.11
2023-04-09T03:25:16.676Z,5.10
2023-04-09T03:26:17.220Z,5.08
2023-04-09T03:27:16.789Z,5.04
2023-04-09T03:28:16.316Z,5.03
2023-04-09T03:29:16.867Z,4.99
2023-04-09T03:30:16.473Z,5.02
2023-04-09T03:31:17.107Z,5.03
2023-04-09T03:32:18.932Z,5.00
2023-04-09T03:33:16.675Z,4.97
2023-04-09T03:34:17.209Z,4.89
2023-04-09T03:35:16.787Z,4.85
2023-04-09T03:36:16.335Z,4.83
2023-04-09T03:37:16.910Z,4.76
2023-04-09T03:38:16.500Z,4.71
2023-04-09T03:39:17.033Z,4.68
2023-04-09T03:40:16.565Z,4.69
2023-04-09T03:41:17.078Z,4.65
2023-04-09T03:42:16.705Z,4.67
2023-04-09T03:43:17.238Z,4.61
2023-04-09T03:44:16.802Z,4.59
2023-04-09T03:45:16.367Z,4.55
2023-04-09T03:46:16.947Z,4.52
2023-04-09T03:47:16.521Z,4.54
2023-04-09T03:48:17.071Z,4.47
2023-04-09T03:49:16.617Z,4.45
2023-04-09T03:50:17.195Z,4.42
2023-04-09T03:51:16.792Z,4.40
2023-04-09T03:52:16.485Z,4.42
2023-04-09T03:53:17.023Z,4.41
2023-04-09T03:54:16.652Z,4.40
2023-04-09T03:55:17.224Z,4.40
2023-04-09T03:56:16.783Z,4.35
2023-04-09T03:57:16.354Z,4.35
2023-04-09T03:58:16.952Z,4.38
2023-04-09T03:59:16.521Z,4.34
2023-04-09T04:00:17.113Z,4.34
2023-04-09T04:01:16.693Z,4.28
2023-04-09T04:02:17.318Z,4.28
2023-04-09T04:03:17.270Z,4.27
2023-04-09T04:04:17.148Z,4.24
2023-04-09T04:05:16.973Z,4.23
2023-04-09T04:06:16.519Z,4.23
2023-04-09T04:07:17.077Z,4.23
2023-04-09T04:08:16.616Z,4.20
2023-04-09T04:09:17.197Z,4.21
2023-04-09T04:10:16.750Z,4.20
2023-04-09T04:11:17.346Z,4.20
2023-04-09T04:12:17.120Z,4.18
2023-04-09T04:13:16.696Z,4.18
2023-04-09T04:14:16.389Z,4.17
2023-04-09T04:16:17.054Z,4.16
2023-04-09T04:17:16.774Z,4.14
2023-04-09T04:18:16.322Z,4.16
2023-04-09T04:19:16.932Z,4.13
2023-04-09T04:20:16.508Z,4.13
2023-04-09T04:21:17.123Z,4.09
2023-04-09T04:22:16.803Z,4.09
2023-04-09T04:23:16.350Z,4.10
2023-04-09T04:24:16.891Z,4.07
2023-04-09T04:25:16.483Z,4.06
2023-04-09T04:26:17.097Z,4.05
2023-04-09T04:27:16.695Z,4.03
2023-04-09T04:28:17.255Z,4.00
2023-04-09T04:29:16.838Z,4.00
2023-04-09T04:30:16.400Z,3.97
2023-04-09T04:31:16.986Z,3.97
2023-04-09T04:32:16.704Z,3.96
2023-04-09T04:33:17.258Z,3.92
2023-04-09T04:34:16.859Z,3.93
2023-04-09T04:35:16.438Z,3.92
2023-04-09T04:36:17.062Z,3.92
2023-04-09T04:37:16.600Z,3.89
2023-04-09T04:38:17.124Z,3.90
2023-04-09T04:39:16.658Z,3.88
2023-04-09T04:40:17.228Z,3.89
2023-04-09T04:41:16.775Z,3.85
2023-04-09T04:42:16.567Z,3.88
2023-04-09T04:43:17.141Z,3.83
2023-04-09T04:44:16.733Z,3.82
2023-04-09T04:45:17.298Z,3.82
2023-04-09T04:46:16.986Z,3.82
2023-04-09T04:47:16.591Z,3.82
2023-04-09T04:48:17.165Z,3.81
2023-04-09T04:49:16.736Z,3.79
2023-04-09T04:50:17.291Z,3.78
2023-04-09T04:51:16.838Z,3.78
2023-04-09T04:52:17.822Z,3.78
2023-04-09T04:53:16.469Z,3.79
2023-04-09T04:54:17.030Z,3.79
2023-04-09T04:55:16.601Z,3.77
2023-04-09T04:56:17.187Z,3.78
2023-04-09T04:57:16.743Z,3.78
2023-04-09T04:58:17.294Z,3.79
2023-04-09T04:59:16.852Z,3.79
2023-04-09T05:00:16.399Z,3.79
2023-04-09T05:01:16.948Z,3.85
2023-04-09T05:02:16.747Z,3.83
2023-04-09T05:03:16.648Z,3.88
2023-04-09T05:04:16.404Z,3.90
2023-04-09T05:05:16.949Z,3.88
2023-04-09T05:06:16.496Z,3.88
2023-04-09T05:07:17.024Z,3.89
2023-04-09T05:08:16.584Z,3.90
2023-04-09T05:09:17.130Z,3.93
2023-04-09T05:10:16.701Z,3.97
2023-04-09T05:11:17.276Z,4.03
2023-04-09T05:12:16.394Z,4.05
2023-04-09T05:13:16.973Z,4.06
2023-04-09T05:14:16.550Z,4.12
2023-04-09T05:15:17.086Z,4.12
2023-04-09T05:16:16.633Z,4.07
2023-04-09T05:17:17.242Z,4.13
2023-04-09T05:18:16.848Z,4.18
2023-04-09T05:19:16.383Z,4.28
2023-04-09T05:20:16.964Z,4.47
2023-04-09T05:21:16.624Z,4.76
2023-04-09T05:22:16.378Z,4.95
2023-04-09T05:23:16.926Z,5.21
2023-04-09T05:24:16.483Z,5.31
2023-04-09T05:25:17.107Z,5.31
2023-04-09T05:26:16.704Z,5.34
2023-04-09T05:27:17.300Z,5.24
2023-04-09T05:28:16.932Z,5.27
2023-04-09T05:29:16.504Z,5.24
2023-04-09T05:30:17.091Z,5.25
2023-04-09T05:31:16.771Z,5.28
2023-04-09T05:32:16.880Z,5.28
2023-04-09T05:33:16.512Z,5.35
2023-04-09T05:34:17.071Z,5.43
2023-04-09T05:35:16.617Z,5.49
2023-04-09T05:36:17.220Z,5.53
2023-04-09T05:37:16.785Z,5.57
2023-04-09T05:38:16.335Z,5.65
2023-04-09T05:39:16.905Z,5.72
2023-04-09T05:40:16.477Z,5.69
2023-04-09T05:41:17.033Z,5.46
2023-04-09T05:42:16.764Z,5.35
2023-04-09T05:43:17.299Z,5.28
2023-04-09T05:44:16.845Z,5.42
2023-04-09T05:45:16.438Z,5.35
2023-04-09T05:46:17.009Z,5.31
2023-04-09T05:47:16.646Z,5.21
2023-04-09T05:48:17.200Z,5.21
2023-04-09T05:49:16.774Z,5.24
2023-04-09T05:50:16.373Z,5.34
2023-04-09T05:51:16.924Z,5.37
2023-04-09T05:52:17.113Z,5.41
2023-04-09T05:53:16.667Z,5.53
2023-04-09T05:54:17.236Z,5.62
2023-04-09T05:55:16.789Z,5.70
2023-04-09T05:56:16.364Z,5.77
2023-04-09T05:57:16.928Z,5.85
2023-04-09T05:58:16.508Z,5.87
2023-04-09T05:59:17.072Z,5.93
2023-04-09T06:00:16.679Z,6.00
2023-04-09T06:01:17.248Z,6.20
2023-04-09T06:02:17.139Z,6.24
2023-04-09T06:03:17.160Z,6.26
2023-04-09T06:04:17.292Z,6.33
2023-04-09T06:05:17.106Z,6.48
2023-04-09T06:06:16.675Z,6.72
2023-04-09T06:07:17.240Z,6.73
2023-04-09T06:08:16.799Z,6.72
2023-04-09T06:09:16.369Z,6.88
2023-04-09T06:10:16.961Z,6.93
2023-04-09T06:11:16.489Z,6.76
2023-04-09T06:12:17.237Z,6.82
2023-04-09T06:13:16.795Z,7.18
2023-04-09T06:14:16.440Z,7.15
2023-04-09T06:15:17.016Z,7.23
2023-04-09T06:16:16.664Z,7.60
2023-04-09T06:17:16.452Z,7.57
2023-04-09T06:18:17.002Z,7.63
2023-04-09T06:19:16.593Z,7.74
2023-04-09T06:20:17.201Z,7.58
2023-04-09T06:21:16.776Z,7.87
2023-04-09T06:22:16.865Z,7.87
2023-04-09T06:23:16.402Z,7.87
2023-04-09T06:24:16.954Z,8.12
2023-04-09T06:25:16.499Z,8.16
2023-04-09T06:26:17.017Z,8.19
2023-04-09T06:27:16.555Z,8.06
2023-04-09T06:28:17.083Z,8.01
2023-04-09T06:29:16.669Z,8.08
2023-04-09T06:30:17.225Z,8.41
2023-04-09T06:31:16.782Z,8.12
2023-04-09T06:32:16.413Z,8.15
2023-04-09T06:33:16.986Z,8.25
2023-04-09T06:34:16.592Z,8.29
2023-04-09T06:35:17.135Z,8.25
2023-04-09T06:36:16.728Z,8.48
2023-04-09T06:37:17.248Z,8.23
2023-04-09T06:38:16.780Z,8.39
2023-04-09T06:39:16.323Z,8.94
2023-04-09T06:40:16.868Z,9.34
2023-04-09T06:41:16.388Z,8.92
2023-04-09T06:42:16.575Z,8.75
2023-04-09T06:43:17.127Z,9.46
2023-04-09T06:44:16.706Z,10.03
2023-04-09T06:45:16.494Z,10.13
2023-04-09T06:46:17.105Z,9.91
2023-04-09T06:47:16.760Z,9.64
2023-04-09T06:48:16.371Z,9.66
2023-04-09T06:49:16.922Z,10.20
2023-04-09T06:50:16.495Z,10.30
2023-04-09T06:51:17.050Z,10.45
2023-04-09T06:52:16.523Z,10.08
2023-04-09T06:53:17.169Z,9.81
2023-04-09T06:54:16.769Z,10.09
2023-04-09T06:55:16.363Z,10.45
2023-04-09T06:56:16.899Z,10.79
2023-04-09T06:57:16.466Z,10.99
2023-04-09T06:58:17.061Z,10.99
2023-04-09T06:59:16.596Z,10.90
2023-04-09T07:00:17.168Z,11.04
2023-04-09T07:01:16.745Z,10.89
2023-04-09T07:02:17.235Z,11.20
2023-04-09T07:03:17.106Z,11.28
2023-04-09T07:04:17.026Z,11.37
2023-04-09T07:05:16.901Z,11.61
2023-04-09T07:06:16.456Z,11.78
2023-04-09T07:07:16.999Z,12.14
2023-04-09T07:08:16.586Z,12.08
2023-04-09T07:09:17.143Z,12.56
2023-04-09T07:10:16.687Z,12.65
2023-04-09T07:11:17.330Z,12.58
2023-04-09T07:12:17.179Z,12.84
2023-04-09T07:13:16.745Z,13.18
2023-04-09T07:14:16.314Z,12.32
2023-04-09T07:15:16.881Z,12.83
2023-04-09T07:16:16.620Z,12.77
2023-04-09T07:17:17.276Z,12.84
2023-04-09T07:18:16.874Z,13.04
2023-04-09T07:19:16.433Z,13.03
2023-04-09T07:20:17.016Z,13.31
2023-04-09T07:21:16.577Z,13.39
2023-04-09T07:22:16.915Z,12.75
2023-04-09T07:23:16.459Z,12.30
2023-04-09T07:24:17.027Z,12.08
2023-04-09T07:25:16.666Z,12.12
2023-04-09T07:26:17.236Z,12.42
2023-04-09T07:27:16.812Z,12.77
2023-04-09T07:28:16.530Z,12.87
2023-04-09T07:29:17.208Z,13.13
2023-04-09T07:30:16.778Z,13.25
2023-04-09T07:31:16.373Z,13.67
2023-04-09T07:32:16.814Z,14.11
2023-04-09T07:33:16.409Z,14.31
2023-04-09T07:34:16.959Z,14.38
2023-04-09T07:35:16.523Z,14.04
2023-04-09T07:36:17.084Z,14.36
2023-04-09T07:37:16.668Z,14.69
2023-04-09T07:38:17.211Z,15.17
2023-04-09T07:39:16.799Z,15.25
2023-04-09T07:40:16.342Z,15.02
2023-04-09T07:41:16.940Z,14.86
2023-04-09T07:42:16.485Z,14.46
2023-04-09T07:43:17.034Z,14.17
2023-04-09T07:44:16.787Z,14.15
2023-04-09T07:45:16.338Z,14.00
2023-04-09T07:46:16.905Z,14.33
2023-04-09T07:47:16.535Z,14.79
2023-04-09T07:48:17.088Z,14.82
2023-04-09T07:49:16.623Z,15.25
2023-04-09T07:50:17.196Z,15.01
2023-04-09T07:51:16.734Z,15.43
2023-04-09T07:52:17.206Z,15.60
2023-04-09T07:53:16.762Z,15.29
2023-04-09T07:54:17.284Z,14.73
2023-04-09T07:55:18.075Z,14.55
2023-04-09T07:56:17.129Z,14.27
2023-04-09T07:57:16.684Z,14.51
2023-04-09T07:58:17.252Z,14.76
2023-04-09T07:59:16.798Z,14.97
2023-04-09T08:00:16.411Z,15.11
2023-04-09T08:01:16.952Z,14.40
2023-04-09T08:02:16.877Z,15.57
2023-04-09T08:03:16.781Z,16.18
2023-04-09T08:04:16.900Z,16.73
2023-04-09T08:05:16.714Z,15.98
2023-04-09T08:06:16.499Z,16.09
2023-04-09T08:07:17.084Z,15.90
2023-04-09T08:08:16.633Z,16.12
2023-04-09T08:09:17.224Z,16.28
2023-04-09T08:10:16.816Z,16.01
2023-04-09T08:11:16.377Z,16.54
2023-04-09T08:12:17.141Z,16.77
2023-04-09T08:13:16.716Z,16.32
2023-04-09T08:14:17.294Z,16.21
2023-04-09T08:15:16.899Z,16.08
2023-04-09T08:16:16.503Z,16.54
2023-04-09T08:17:17.088Z,16.68
2023-04-09T08:18:16.645Z,17.21
2023-04-09T08:19:17.228Z,17.36
2023-04-09T08:20:16.816Z,18.09
2023-04-09T08:21:16.392Z,18.74
2023-04-09T08:22:16.355Z,18.61
2023-04-09T08:23:16.928Z,16.46
2023-04-09T08:24:16.528Z,17.25
2023-04-09T08:25:17.235Z,17.19
2023-04-09T08:26:16.835Z,16.86
2023-04-09T08:27:16.400Z,16.18
2023-04-09T08:28:16.975Z,16.59
2023-04-09T08:29:16.514Z,16.37
2023-04-09T08:30:18.815Z,15.11
2023-04-09T08:31:16.583Z,15.47
2023-04-09T08:32:17.134Z,15.67
2023-04-09T08:33:16.969Z,15.12
2023-04-09T08:34:16.516Z,15.31
2023-04-09T08:35:17.069Z,14.70
2023-04-09T08:36:16.670Z,15.05
2023-04-09T08:37:17.294Z,15.43
2023-04-09T08:38:16.857Z,15.55
2023-04-09T08:39:16.408Z,16.52
2023-04-09T08:40:16.978Z,16.84
2023-04-09T08:41:16.569Z,17.37
2023-04-09T08:42:16.678Z,18.02
2023-04-09T08:43:17.220Z,18.36
2023-04-09T08:44:16.769Z,17.37
2023-04-09T08:45:17.308Z,17.22
2023-04-09T08:46:16.893Z,17.44
2023-04-09T08:47:16.684Z,18.57
2023-04-09T08:48:17.285Z,19.01
2023-04-09T08:49:16.974Z,18.01
2023-04-09T08:50:16.541Z,17.16
2023-04-09T08:51:17.125Z,17.22
2023-04-09T08:52:17.090Z,16.35
2023-04-09T08:53:16.647Z,15.92
2023-04-09T08:54:17.257Z,15.94
2023-04-09T08:55:16.976Z,16.54
2023-04-09T08:56:16.567Z,16.67
2023-04-09T08:57:17.144Z,16.45
2023-04-09T08:58:16.712Z,15.84
2023-04-09T08:59:17.243Z,15.85
2023-04-09T09:00:16.784Z,16.08
2023-04-09T09:01:16.312Z,16.66
2023-04-09T09:02:16.455Z,16.00
2023-04-09T09:03:17.152Z,14.93
2023-04-09T09:04:16.923Z,14.84
2023-04-09T09:05:16.588Z,14.36
2023-04-09T09:06:17.188Z,15.38
2023-04-09T09:07:16.764Z,16.05
2023-04-09T09:08:16.356Z,16.32
2023-04-09T09:09:16.931Z,15.76
2023-04-09T09:10:16.517Z,15.01
2023-04-09T09:11:17.092Z,15.22
2023-04-09T09:12:16.720Z,15.91
2023-04-09T09:14:16.417Z,14.40
2023-04-09T09:15:16.999Z,15.25
2023-04-09T09:16:16.595Z,15.38
2023-04-09T09:17:17.207Z,15.80
2023-04-09T09:18:16.830Z,16.97
2023-04-09T09:19:16.382Z,17.71
2023-04-09T09:20:16.948Z,18.02
2023-04-09T09:21:16.545Z,17.32
2023-04-09T09:22:17.297Z,18.02
2023-04-09T09:23:16.890Z,18.15
2023-04-09T09:24:16.464Z,18.85
2023-04-09T09:25:17.093Z,19.37
2023-04-09T09:26:16.676Z,19.54
2023-04-09T09:27:17.315Z,20.13
2023-04-09T09:28:16.866Z,18.63
2023-04-09T09:29:16.391Z,19.01
2023-04-09T09:30:17.092Z,19.31
2023-04-09T09:31:16.722Z,18.46
2023-04-09T09:32:17.383Z,19.01
2023-04-09T09:33:16.969Z,18.01
2023-04-09T09:34:16.560Z,17.89
2023-04-09T09:35:17.212Z,17.42
2023-04-09T09:36:16.793Z,18.46
2023-04-09T09:37:16.346Z,18.17
2023-04-09T09:39:17.235Z,19.44
2023-04-09T09:40:16.893Z,19.19
2023-04-09T09:41:16.451Z,20.06
2023-04-09T09:42:17.276Z,20.19
2023-04-09T09:43:16.824Z,19.72
2023-04-09T09:44:16.392Z,19.57
2023-04-09T09:45:16.950Z,18.53
2023-04-09T09:46:16.516Z,18.54
2023-04-09T09:47:17.220Z,18.95
2023-04-09T09:48:16.875Z,19.37
2023-04-09T09:49:16.443Z,18.39
2023-04-09T09:50:17.069Z,19.09
2023-04-09T09:51:16.723Z,19.10
2023-04-09T09:52:17.326Z,20.08
2023-04-09T09:53:16.852Z,20.17
2023-04-09T09:54:16.405Z,20.61
2023-04-09T09:55:16.987Z,20.62
2023-04-09T09:56:16.562Z,20.96
2023-04-09T09:57:17.135Z,21.41
2023-04-09T09:58:16.678Z,21.36
2023-04-09T09:59:17.284Z,21.26
2023-04-09T10:00:17.702Z,21.03
2023-04-09T10:01:16.942Z,21.31
2023-04-09T10:02:17.181Z,19.64
2023-04-09T10:03:16.856Z,18.77
2023-04-09T10:04:16.550Z,18.75
2023-04-09T10:05:17.188Z,17.07
2023-04-09T10:06:16.760Z,17.58
2023-04-09T10:07:17.326Z,17.22
2023-04-09T10:08:16.874Z,16.45
2023-04-09T10:09:16.410Z,16.80
2023-04-09T10:10:16.976Z,16.71
2023-04-09T10:11:16.530Z,17.37
2023-04-09T10:12:17.098Z,17.30
2023-04-09T10:13:16.816Z,16.83
2023-04-09T10:14:16.353Z,15.43
2023-04-09T10:15:16.901Z,15.29
2023-04-09T10:16:16.451Z,15.27
2023-04-09T10:17:17.070Z,15.47
2023-04-09T10:18:16.771Z,15.25
2023-04-09T10:19:17.324Z,15.55
2023-04-09T10:20:16.864Z,15.84
2023-04-09T10:21:16.588Z,16.12
2023-04-09T10:22:16.359Z,17.30
2023-04-09T10:23:16.917Z,17.61
2023-04-09T10:24:16.465Z,18.40
2023-04-09T10:25:17.047Z,18.70
2023-04-09T10:26:16.680Z,18.19
2023-04-09T10:27:17.549Z,18.40
2023-04-09T10:28:17.319Z,17.81
2023-04-09T10:29:17.000Z,17.43
2023-04-09T10:30:16.641Z,17.43
2023-04-09T10:31:17.272Z,16.40
2023-04-09T10:32:16.944Z,17.56
2023-04-09T10:33:16.497Z,17.98
2023-04-09T10:34:17.049Z,17.39
2023-04-09T10:35:16.599Z,17.53
2023-04-09T10:36:17.170Z,18.01
2023-04-09T10:37:16.792Z,18.86
2023-04-09T10:38:16.488Z,18.99
2023-04-09T10:39:17.024Z,17.92
2023-04-09T10:40:16.546Z,18.68
2023-04-09T10:41:17.116Z,19.56
2023-04-09T10:42:16.914Z,19.89
2023-04-09T10:43:16.462Z,19.14
2023-04-09T10:44:17.010Z,19.19
2023-04-09T10:45:16.529Z,19.56
2023-04-09T10:46:17.144Z,19.51
2023-04-09T10:47:16.873Z,18.75
2023-04-09T10:48:16.419Z,19.26
2023-04-09T10:49:16.976Z,19.57
2023-04-09T10:50:16.539Z,19.88
2023-04-09T10:51:17.064Z,19.56
2023-04-09T10:52:16.713Z,19.88
2023-04-09T10:53:17.252Z,18.74
2023-04-09T10:54:16.810Z,19.13
2023-04-09T10:55:16.371Z,18.96
2023-04-09T10:56:16.945Z,19.91
2023-04-09T10:57:16.525Z,20.34
2023-04-09T10:58:17.105Z,20.51
2023-04-09T10:59:16.697Z,20.81
2023-04-09T11:00:17.272Z,20.40
2023-04-09T11:01:16.845Z,20.40
2023-04-09T11:02:16.507Z,20.21
2023-04-09T11:03:17.332Z,19.12
2023-04-09T11:04:16.355Z,19.01
2023-04-09T11:05:16.960Z,18.68
2023-04-09T11:06:16.496Z,18.51
2023-04-09T11:07:17.012Z,19.34
2023-04-09T11:08:16.566Z,19.69
2023-04-09T11:09:17.147Z,19.69
2023-04-09T11:10:16.699Z,20.02
2023-04-09T11:11:17.269Z,20.20
2023-04-09T11:12:17.130Z,18.46
2023-04-09T11:13:16.685Z,19.12
2023-04-09T11:14:17.301Z,19.51
2023-04-09T11:15:16.865Z,20.24
2023-04-09T11:16:22.504Z,20.23
2023-04-09T11:17:17.056Z,20.23
2023-04-09T11:18:16.675Z,19.74
2023-04-09T11:19:17.258Z,19.46
2023-04-09T11:20:16.815Z,19.39
2023-04-09T11:21:16.343Z,18.91
2023-04-09T11:22:16.834Z,19.61
2023-04-09T11:23:16.401Z,19.74
2023-04-09T11:24:16.970Z,19.61
2023-04-09T11:25:16.536Z,18.25
2023-04-09T11:26:17.102Z,18.68
2023-04-09T11:27:16.648Z,18.71
2023-04-09T11:28:17.225Z,19.07
2023-04-09T11:29:16.793Z,17.82
2023-04-09T11:30:16.336Z,18.34
2023-04-09T11:31:16.943Z,19.06
2023-04-09T11:32:16.511Z,18.81
2023-04-09T11:33:19.215Z,18.39
2023-04-09T11:34:17.031Z,16.87
2023-04-09T11:35:16.620Z,16.24
2023-04-09T11:36:17.289Z,16.66
2023-04-09T11:37:16.919Z,16.45
2023-04-09T11:38:16.579Z,15.85
2023-04-09T11:39:17.225Z,15.94
2023-04-09T11:40:16.798Z,16.86
2023-04-09T11:41:16.384Z,16.97
2023-04-09T11:42:16.799Z,17.08
2023-04-09T11:43:16.443Z,17.15
2023-04-09T11:44:17.324Z,16.97
2023-04-09T11:45:16.848Z,15.88
2023-04-09T11:46:16.386Z,16.17
2023-04-09T11:47:16.994Z,15.55
2023-04-09T11:48:16.569Z,14.95
2023-04-09T11:49:17.118Z,15.17
2023-04-09T11:50:16.746Z,15.12
2023-04-09T11:51:16.378Z,15.32
2023-04-09T11:52:17.285Z,15.49
2023-04-09T11:53:16.952Z,15.21
2023-04-09T11:54:16.480Z,14.84
2023-04-09T11:55:17.059Z,14.77
2023-04-09T11:56:16.593Z,14.63
2023-04-09T11:57:17.127Z,14.53
2023-04-09T11:58:16.702Z,14.21
2023-04-09T11:59:17.264Z,14.45
2023-04-09T12:00:16.854Z,14.72
2023-04-09T12:01:16.411Z,14.42
2023-04-09T12:02:16.716Z,14.46
2023-04-09T12:03:16.925Z,14.31
2023-04-09T12:04:17.175Z,14.25
2023-04-09T12:05:17.096Z,14.28
2023-04-09T12:06:16.795Z,14.40
2023-04-09T12:07:16.361Z,14.29
2023-04-09T12:08:16.889Z,14.20
2023-04-09T12:09:16.438Z,14.10
2023-04-09T12:10:17.000Z,13.98
2023-04-09T12:11:16.554Z,14.01
2023-04-09T12:12:17.193Z,14.36
2023-04-09T12:13:16.843Z,14.63
2023-04-09T12:14:16.409Z,14.66
2023-04-09T12:15:16.963Z,14.67
2023-04-09T12:16:16.525Z,14.20
2023-04-09T12:17:17.081Z,14.29
2023-04-09T12:18:16.643Z,14.31
2023-04-09T12:19:17.188Z,13.56
2023-04-09T12:20:16.752Z,13.73
2023-04-09T12:21:18.777Z,13.84
2023-04-09T12:22:17.129Z,13.96
2023-04-09T12:23:16.682Z,13.86
2023-04-09T12:24:17.216Z,13.77
2023-04-09T12:25:16.760Z,13.83
2023-04-09T12:26:17.276Z,13.69
2023-04-09T12:27:16.831Z,13.77
2023-04-09T12:28:16.393Z,13.83
2023-04-09T12:29:16.966Z,13.83
2023-04-09T12:30:16.537Z,13.69
2023-04-09T12:31:17.141Z,13.75
2023-04-09T12:32:17.029Z,13.96
2023-04-09T12:33:16.682Z,13.94
2023-04-09T12:34:17.236Z,13.97
2023-04-09T12:35:16.779Z,14.14
2023-04-09T12:36:16.341Z,14.33
2023-04-09T12:37:16.906Z,14.39
2023-04-09T12:38:16.453Z,14.49
2023-04-09T12:39:16.977Z,14.31
2023-04-09T12:40:16.540Z,14.32
2023-04-09T12:41:17.133Z,14.40
2023-04-09T12:42:16.798Z,14.25
2023-04-09T12:43:16.394Z,13.89
2023-04-09T12:44:16.977Z,13.94
2023-04-09T12:45:16.541Z,13.90
2023-04-09T12:46:17.132Z,13.98
2023-04-09T12:47:16.794Z,13.98
2023-04-09T12:48:16.365Z,13.65
2023-04-09T12:49:16.935Z,13.63
2023-04-09T12:50:16.525Z,13.69
2023-04-09T12:51:17.095Z,13.94
2023-04-09T12:52:16.659Z,13.76
2023-04-09T12:53:17.186Z,13.66
2023-04-09T12:54:16.748Z,13.56
2023-04-09T12:55:17.307Z,13.83
2023-04-09T12:56:16.880Z,13.77
2023-04-09T12:57:16.450Z,13.76
2023-04-09T12:58:16.996Z,13.79
2023-04-09T12:59:16.554Z,13.82
2023-04-09T13:00:17.168Z,13.82
2023-04-09T13:01:16.732Z,13.79
2023-04-09T13:02:16.692Z,13.83
2023-04-09T13:03:16.901Z,13.83
2023-04-09T13:04:16.961Z,13.63
2023-04-09T13:05:16.691Z,13.66
2023-04-09T13:06:16.320Z,13.53
2023-04-09T13:07:16.872Z,13.46
2023-04-09T13:08:16.427Z,13.32
2023-04-09T13:09:16.957Z,13.31